createdAt,value
2023-03-25T00:01:16.706Z,5.40
2023-03-25T00:03:50.625Z,5.33
2023-03-25T00:06:18.413Z,4.68
2023-03-25T00:08:45.976Z,5.45
2023-03-25T00:11:13.392Z,5.03
2023-03-25T00:13:42.130Z,4.90
2023-03-25T00:16:10.355Z,5.03
2023-03-25T00:18:37.895Z,5.05
2023-03-25T00:21:10.853Z,4.80
2023-03-25T00:23:39.497Z,4.80
2023-03-25T00:28:52.668Z,5.03
2023-03-25T00:31:19.937Z,5.68
2023-03-25T00:33:47.205Z,4.18
2023-03-25T00:36:15.283Z,4.35
2023-03-25T00:38:43.471Z,4.00
2023-03-25T00:41:23.236Z,4.57
2023-03-25T00:43:52.730Z,4.07
2023-03-25T00:46:20.755Z,3.88
2023-03-25T00:48:48.189Z,4.72
2023-03-25T00:51:21.514Z,4.15
2023-03-25T00:53:53.151Z,4.40
2023-03-25T00:56:21.657Z,4.25
2023-03-25T00:58:49.244Z,3.70
2023-03-25T01:01:23.365Z,3.80
2023-03-25T01:04:00.707Z,3.67
2023-03-25T01:06:35.615Z,3.92
2023-03-25T01:11:34.963Z,3.47
2023-03-25T01:14:04.265Z,3.65
2023-03-25T01:16:32.162Z,3.80
2023-03-25T01:18:59.449Z,3.45
2023-03-25T01:21:27.066Z,4.30
2023-03-25T01:23:54.432Z,3.40
2023-03-25T01:26:21.737Z,3.10
2023-03-25T01:28:49.135Z,3.05
2023-03-25T01:31:16.438Z,3.60
2023-03-25T01:33:43.812Z,2.90
2023-03-25T01:36:13.032Z,3.25
2023-03-25T01:38:41.631Z,3.10
2023-03-25T01:41:10.109Z,3.22
2023-03-25T01:43:37.503Z,2.90
2023-03-25T01:46:04.925Z,3.65
2023-03-25T01:48:37.143Z,3.33
2023-03-25T01:51:16.721Z,2.83
2023-03-25T01:53:44.776Z,3.42
2023-03-25T01:56:16.607Z,3.15
2023-03-25T01:58:44.581Z,3.20
2023-03-25T02:01:14.125Z,2.88
2023-03-25T02:03:46.568Z,3.20
2023-03-25T02:06:20.861Z,3.42
2023-03-25T02:08:49.114Z,3.53
2023-03-25T02:11:16.745Z,3.40
2023-03-25T02:13:44.081Z,3.15
2023-03-25T02:16:32.993Z,3.30
2023-03-25T02:19:33.038Z,3.17
2023-03-25T02:22:37.600Z,3.45
2023-03-25T02:25:23.048Z,3.05
2023-03-25T02:28:02.511Z,3.13
2023-03-25T02:30:41.545Z,3.28
2023-03-25T02:33:34.312Z,3.15
2023-03-25T02:36:30.157Z,3.50
2023-03-25T02:39:15.809Z,2.85
2023-03-25T02:41:59.983Z,3.25
2023-03-25T02:44:41.068Z,3.45
2023-03-25T02:47:15.010Z,3.20
2023-03-25T02:49:48.161Z,3.38
2023-03-25T02:52:22.154Z,2.97
2023-03-25T02:54:51.868Z,3.28
2023-03-25T02:57:22.794Z,3.30
2023-03-25T02:59:54.155Z,3.08
2023-03-25T03:02:25.736Z,3.25
2023-03-25T03:04:56.716Z,3.25
2023-03-25T03:07:47.085Z,3.05
2023-03-25T03:10:39.969Z,2.83
2023-03-25T03:13:22.377Z,2.97
2023-03-25T03:16:21.975Z,3.00
2023-03-25T03:19:14.394Z,3.33
2023-03-25T03:21:56.251Z,3.25
2023-03-25T03:24:52.637Z,3.22
2023-03-25T03:27:35.410Z,3.38
2023-03-25T03:30:27.259Z,3.47
2023-03-25T03:33:25.437Z,3.10
2023-03-25T03:36:24.470Z,3.35
2023-03-25T03:39:19.945Z,3.30
2023-03-25T03:41:52.555Z,2.88
2023-03-25T03:44:24.906Z,3.20
2023-03-25T03:47:00.391Z,3.30
2023-03-25T03:49:42.967Z,2.92
2023-03-25T03:52:18.670Z,3.30
2023-03-25T03:54:59.618Z,3.80
2023-03-25T03:57:35.773Z,2.90
2023-03-25T04:00:12.822Z,3.05
2023-03-25T04:02:51.379Z,3.20
2023-03-25T04:05:22.723Z,3.58
2023-03-25T04:07:56.935Z,3.22
2023-03-25T04:10:29.399Z,3.65
2023-03-25T04:13:00.476Z,3.03
2023-03-25T04:15:27.792Z,3.40
2023-03-25T04:17:55.110Z,3.00
2023-03-25T04:20:25.685Z,3.63
2023-03-25T04:22:53.748Z,3.10
2023-03-25T04:25:21.709Z,2.97
2023-03-25T04:27:49.435Z,3.20
2023-03-25T04:30:18.047Z,3.22
2023-03-25T04:32:47.078Z,3.03
2023-03-25T04:35:17.013Z,3.17
2023-03-25T04:37:49.044Z,3.20
2023-03-25T04:40:18.848Z,3.28
2023-03-25T04:42:47.432Z,3.28
2023-03-25T04:45:17.002Z,2.70
2023-03-25T04:47:47.309Z,3.10
2023-03-25T04:50:24.681Z,3.33
2023-03-25T04:52:53.422Z,3.13
2023-03-25T04:55:21.778Z,2.97
2023-03-25T04:57:50.862Z,3.17
2023-03-25T05:00:24.353Z,3.17
2023-03-25T05:02:54.638Z,2.92
2023-03-25T05:05:25.042Z,3.45
2023-03-25T05:07:54.934Z,3.00
2023-03-25T05:10:24.586Z,3.33
2023-03-25T05:12:58.313Z,3.10
2023-03-25T05:15:26.501Z,3.50
2023-03-25T05:17:54.001Z,2.90
2023-03-25T05:20:22.494Z,3.05
2023-03-25T05:22:49.886Z,3.20
2023-03-25T05:25:18.317Z,3.38
2023-03-25T05:27:46.682Z,3.25
2023-03-25T05:30:16.077Z,3.20
2023-03-25T05:32:45.862Z,3.40
2023-03-25T05:35:13.476Z,3.25
2023-03-25T05:37:40.811Z,3.20
2023-03-25T05:40:15.082Z,3.22
2023-03-25T05:42:47.018Z,3.08
2023-03-25T05:45:17.257Z,2.60
2023-03-25T05:47:44.686Z,3.13
2023-03-25T05:50:12.328Z,2.80
2023-03-25T05:52:41.797Z,2.92
2023-03-25T05:55:15.689Z,3.65
2023-03-25T05:57:43.201Z,3.42
2023-03-25T06:00:12.780Z,2.97
2023-03-25T06:02:43.225Z,3.40
2023-03-25T06:05:15.560Z,3.35
2023-03-25T06:07:45.784Z,3.70
2023-03-25T06:10:16.510Z,3.28
2023-03-25T06:12:45.612Z,2.88
2023-03-25T06:15:14.934Z,2.95
2023-03-25T06:17:42.574Z,3.50
2023-03-25T06:20:12.707Z,3.13
2023-03-25T06:22:43.019Z,3.00
2023-03-25T06:25:12.440Z,3.40
2023-03-25T06:27:42.746Z,3.15
2023-03-25T06:30:13.373Z,2.60
2023-03-25T06:32:41.317Z,3.30
2023-03-25T06:35:12.029Z,2.72
2023-03-25T06:37:40.016Z,2.92
2023-03-25T06:40:08.018Z,2.63
2023-03-25T06:42:35.397Z,3.05
2023-03-25T06:45:05.034Z,3.65
2023-03-25T06:47:32.354Z,3.10
2023-03-25T06:49:59.729Z,2.75
2023-03-25T06:52:27.022Z,3.08
2023-03-25T06:54:54.294Z,2.95
2023-03-25T06:57:21.708Z,2.83
2023-03-25T06:59:49.650Z,3.05
2023-03-25T07:02:16.953Z,3.08
2023-03-25T07:04:44.288Z,3.33
2023-03-25T07:07:11.590Z,3.15
2023-03-25T07:09:38.845Z,2.92
2023-03-25T07:12:08.815Z,3.13
2023-03-25T07:14:36.381Z,3.42
2023-03-25T07:17:03.674Z,3.83
2023-03-25T07:19:31.323Z,3.70
2023-03-25T07:21:58.620Z,3.08
2023-03-25T07:24:26.170Z,3.45
2023-03-25T07:26:53.488Z,3.55
2023-03-25T07:29:20.922Z,3.80
2023-03-25T07:31:48.224Z,3.60
2023-03-25T07:34:15.660Z,4.45
2023-03-25T07:36:43.034Z,4.80
2023-03-25T07:39:10.421Z,4.85
2023-03-25T07:41:37.725Z,4.95
2023-03-25T07:44:05.198Z,5.47
2023-03-25T07:46:32.505Z,5.28
2023-03-25T07:48:59.833Z,5.03
2023-03-25T07:51:27.218Z,5.32
2023-03-25T07:53:54.534Z,6.10
2023-03-25T07:56:22.008Z,5.68
2023-03-25T07:58:49.772Z,5.40
2023-03-25T08:01:17.067Z,5.55
2023-03-25T08:03:44.477Z,6.30
2023-03-25T08:06:11.976Z,6.13
2023-03-25T08:08:39.275Z,6.65
2023-03-25T08:11:06.902Z,6.72
2023-03-25T08:13:34.347Z,6.50
2023-03-25T08:16:01.709Z,6.50
2023-03-25T08:18:29.150Z,6.95
2023-03-25T08:20:56.394Z,6.78
2023-03-25T08:23:26.721Z,7.30
2023-03-25T08:25:54.555Z,7.03
2023-03-25T08:28:23.195Z,7.05
2023-03-25T08:30:54.966Z,7.88
2023-03-25T08:33:34.617Z,7.15
2023-03-25T08:36:02.613Z,7.28
2023-03-25T08:38:34.787Z,7.07
2023-03-25T08:41:02.726Z,8.77
2023-03-25T08:43:30.034Z,7.13
2023-03-25T08:45:57.356Z,8.13
2023-03-25T08:48:24.893Z,7.38
2023-03-25T08:50:53.213Z,6.95
2023-03-25T08:53:20.543Z,6.75
2023-03-25T08:55:51.214Z,7.13
2023-03-25T08:58:18.748Z,7.00
2023-03-25T09:00:47.084Z,6.85
2023-03-25T09:03:14.353Z,7.10
2023-03-25T09:05:41.736Z,6.28
2023-03-25T09:08:09.699Z,5.93
2023-03-25T09:10:38.121Z,7.22
2023-03-25T09:13:05.898Z,6.85
2023-03-25T09:15:33.565Z,6.10
2023-03-25T09:18:01.124Z,6.32
2023-03-25T09:20:28.488Z,6.95
2023-03-25T09:22:55.757Z,6.47
2023-03-25T09:25:23.367Z,6.68
2023-03-25T09:27:50.989Z,6.55
2023-03-25T09:30:18.744Z,6.47
2023-03-25T09:32:46.255Z,6.75
2023-03-25T09:35:13.640Z,6.70
2023-03-25T09:37:41.102Z,6.82
2023-03-25T09:40:11.383Z,6.55
2023-03-25T09:43:05.979Z,6.00
2023-03-25T09:45:44.629Z,6.55
2023-03-25T09:48:30.255Z,6.22
2023-03-25T09:51:02.703Z,6.65
2023-03-25T09:53:51.371Z,6.15
2023-03-25T09:56:22.827Z,6.03
2023-03-25T09:59:01.251Z,5.90
2023-03-25T10:01:39.990Z,5.55
2023-03-25T10:04:41.316Z,6.05
2023-03-25T10:07:35.550Z,5.70
2023-03-25T10:10:08.613Z,5.50
2023-03-25T10:12:47.509Z,5.57
2023-03-25T10:15:21.465Z,5.95
2023-03-25T10:17:57.944Z,5.47
2023-03-25T10:20:50.649Z,5.05
2023-03-25T10:23:32.971Z,6.55
2023-03-25T10:26:09.592Z,5.20
2023-03-25T10:28:48.904Z,5.32
2023-03-25T10:31:25.365Z,5.13
2023-03-25T10:34:00.015Z,5.80
2023-03-25T10:36:51.614Z,6.22
2023-03-25T10:39:21.948Z,5.30
2023-03-25T10:42:03.879Z,4.90
2023-03-25T10:44:31.222Z,4.90
2023-03-25T10:47:08.803Z,5.13
2023-03-25T10:49:37.243Z,5.53
2023-03-25T10:52:04.815Z,5.55
2023-03-25T10:54:36.870Z,5.18
2023-03-25T10:57:07.887Z,5.15
2023-03-25T10:59:54.918Z,5.50
2023-03-25T11:02:28.981Z,5.53
2023-03-25T11:05:03.138Z,4.93
2023-03-25T11:07:41.813Z,5.20
2023-03-25T11:10:13.782Z,5.75
2023-03-25T11:12:45.342Z,4.53
2023-03-25T11:15:14.340Z,5.28
2023-03-25T11:17:43.140Z,5.32
2023-03-25T11:20:26.193Z,5.75
2023-03-25T11:22:59.072Z,4.60
2023-03-25T11:25:32.710Z,5.10
2023-03-25T11:28:06.100Z,5.60
2023-03-25T11:30:33.467Z,4.80
2023-03-25T11:33:06.999Z,4.63
2023-03-25T11:35:42.312Z,4.90
2023-03-25T11:38:32.445Z,4.63
2023-03-25T11:41:00.019Z,4.50
2023-03-25T11:43:40.329Z,4.78
2023-03-25T11:46:16.866Z,4.30
2023-03-25T11:48:50.060Z,4.40
2023-03-25T11:51:30.375Z,4.45
2023-03-25T11:54:06.113Z,4.82
2023-03-25T11:56:39.477Z,4.53
2023-03-25T11:59:42.896Z,4.88
2023-03-25T12:02:31.927Z,4.55
2023-03-25T12:05:03.355Z,4.78
2023-03-25T12:07:40.890Z,5.22
2023-03-25T12:10:15.387Z,5.57
2023-03-25T12:12:49.168Z,7.20
2023-03-25T12:15:45.914Z,7.40
2023-03-25T12:18:42.092Z,7.90
2023-03-25T12:21:31.052Z,8.35
2023-03-25T12:24:25.976Z,8.45
2023-03-25T12:27:23.984Z,7.68
2023-03-25T12:30:04.088Z,8.20
2023-03-25T12:33:00.132Z,8.23
2023-03-25T12:35:36.760Z,8.65
2023-03-25T12:38:04.145Z,9.25
2023-03-25T12:40:51.128Z,9.40
2023-03-25T12:43:37.525Z,9.23
2023-03-25T12:46:26.799Z,9.20
2023-03-25T12:48:56.860Z,9.13
2023-03-25T12:51:29.993Z,9.43
2023-03-25T12:54:17.208Z,8.50
2023-03-25T12:57:09.258Z,8.80
2023-03-25T12:59:54.542Z,7.50
2023-03-25T13:02:52.640Z,7.20
2023-03-25T13:05:23.394Z,6.88
2023-03-25T13:08:07.358Z,6.97
2023-03-25T13:10:38.459Z,6.78
2023-03-25T13:13:19.621Z,6.30
2023-03-25T13:15:52.914Z,6.53
2023-03-25T13:18:30.969Z,5.82
2023-03-25T13:21:38.115Z,6.07
2023-03-25T13:24:49.703Z,5.57
2023-03-25T13:27:17.365Z,5.20
2023-03-25T13:29:51.290Z,5.00
2023-03-25T13:32:39.644Z,4.75
2023-03-25T13:35:41.700Z,5.00
2023-03-25T13:38:28.600Z,5.50
2023-03-25T13:41:14.732Z,5.20
2023-03-25T13:43:58.045Z,6.18
2023-03-25T13:46:36.815Z,6.00
2023-03-25T13:49:18.593Z,5.85
2023-03-25T13:51:45.889Z,7.68
2023-03-25T13:54:30.355Z,8.35
2023-03-25T13:57:03.651Z,8.07
2023-03-25T14:00:25.312Z,8.80
2023-03-25T14:03:07.346Z,8.98
2023-03-25T14:06:11.561Z,8.57
2023-03-25T14:08:50.964Z,9.05
2023-03-25T14:11:24.690Z,9.15
2023-03-25T14:14:01.941Z,10.27
2023-03-25T14:16:39.341Z,10.07
2023-03-25T14:19:17.879Z,10.40
2023-03-25T14:21:49.576Z,10.15
2023-03-25T14:24:18.251Z,11.38
2023-03-25T14:26:55.388Z,12.60
2023-03-25T14:29:43.563Z,11.95
2023-03-25T14:32:35.374Z,12.50
2023-03-25T14:35:33.806Z,11.80
2023-03-25T14:38:10.578Z,12.77
2023-03-25T14:41:01.181Z,12.18
2023-03-25T14:43:36.252Z,11.38
2023-03-25T14:46:19.095Z,11.20
2023-03-25T14:49:09.182Z,10.82
2023-03-25T14:51:41.125Z,10.27
2023-03-25T14:54:32.272Z,10.50
2023-03-25T14:57:24.459Z,10.10
2023-03-25T14:59:56.220Z,9.05
2023-03-25T15:02:28.905Z,9.88
2023-03-25T15:05:03.997Z,10.35
2023-03-25T15:08:04.427Z,8.88
2023-03-25T15:10:38.305Z,8.70
2023-03-25T15:13:21.757Z,8.70
2023-03-25T15:15:50.723Z,7.90
2023-03-25T15:18:36.583Z,7.40
2023-03-25T15:21:09.704Z,7.47
2023-03-25T15:23:40.085Z,7.05
2023-03-25T15:26:14.958Z,7.35
2023-03-25T15:28:51.595Z,8.45
2023-03-25T15:31:41.678Z,7.30
2023-03-25T15:34:33.575Z,7.95
2023-03-25T15:37:46.672Z,7.35
2023-03-25T15:40:41.038Z,7.35
2023-03-25T15:43:36.283Z,7.05
2023-03-25T15:46:27.574Z,6.93
2023-03-25T15:49:19.265Z,6.32
2023-03-25T15:51:52.693Z,6.35
2023-03-25T15:54:32.511Z,7.03
2023-03-25T15:57:26.364Z,6.55
2023-03-25T16:00:14.898Z,6.82
2023-03-25T16:02:51.170Z,6.28
2023-03-25T16:05:20.730Z,6.88
2023-03-25T16:07:49.009Z,6.25
2023-03-25T16:10:36.308Z,5.97
2023-03-25T16:13:24.151Z,6.55
2023-03-25T16:15:58.702Z,6.40
2023-03-25T16:18:26.829Z,6.60
2023-03-25T16:21:00.948Z,6.55
2023-03-25T16:23:29.869Z,6.22
2023-03-25T16:25:57.320Z,5.53
2023-03-25T16:28:29.089Z,6.28
2023-03-25T16:30:56.813Z,6.50
2023-03-25T16:33:30.885Z,6.07
2023-03-25T16:36:09.069Z,6.85
2023-03-25T16:38:36.790Z,6.55
2023-03-25T16:41:25.315Z,5.97
2023-03-25T16:43:54.916Z,5.93
2023-03-25T16:46:23.601Z,6.43
2023-03-25T16:48:54.928Z,6.30
2023-03-25T16:51:28.997Z,5.57
2023-03-25T16:54:00.823Z,5.95
2023-03-25T16:56:33.262Z,6.15
2023-03-25T16:59:22.738Z,5.72
2023-03-25T17:01:59.114Z,5.57
2023-03-25T17:04:41.872Z,5.95
2023-03-25T17:07:14.571Z,5.97
2023-03-25T17:09:44.147Z,5.75
2023-03-25T17:12:17.157Z,5.78
2023-03-25T17:14:47.628Z,6.40
2023-03-25T17:17:47.151Z,6.82
2023-03-25T17:20:21.267Z,6.70
2023-03-25T17:23:19.105Z,6.85
2023-03-25T17:25:52.652Z,6.07
2023-03-25T17:28:39.351Z,7.13
2023-03-25T17:31:36.522Z,6.93
2023-03-25T17:34:08.613Z,7.20
2023-03-25T17:36:40.383Z,7.00
2023-03-25T17:39:34.976Z,6.88
2023-03-25T17:42:13.235Z,6.75
2023-03-25T17:44:45.460Z,6.72
2023-03-25T17:47:17.732Z,7.30
2023-03-25T17:49:45.304Z,7.18
2023-03-25T17:52:12.768Z,7.25
2023-03-25T17:54:40.099Z,7.10
2023-03-25T17:57:14.318Z,7.95
2023-03-25T17:59:41.875Z,7.18
2023-03-25T18:02:16.926Z,7.22
2023-03-25T18:04:44.730Z,7.32
2023-03-25T18:07:12.168Z,7.53
2023-03-25T18:09:41.332Z,7.53
2023-03-25T18:12:08.764Z,6.97
2023-03-25T18:14:36.069Z,6.50
2023-03-25T18:17:04.137Z,7.35
2023-03-25T18:19:32.168Z,6.88
2023-03-25T18:22:09.792Z,7.05
2023-03-25T18:24:41.500Z,7.35
2023-03-25T18:27:14.196Z,6.88
2023-03-25T18:29:41.592Z,7.05
2023-03-25T18:32:09.255Z,8.18
2023-03-25T18:34:36.720Z,7.35
2023-03-25T18:37:04.090Z,7.35
2023-03-25T18:39:32.410Z,7.28
2023-03-25T18:41:59.749Z,6.90
2023-03-25T18:44:28.356Z,7.13
2023-03-25T18:46:55.763Z,7.10
2023-03-25T18:49:23.138Z,7.22
2023-03-25T18:51:50.620Z,6.70
2023-03-25T18:54:18.634Z,7.38
2023-03-25T18:56:47.809Z,7.55
2023-03-25T18:59:19.023Z,7.38
2023-03-25T19:01:58.807Z,7.32
2023-03-25T19:04:27.154Z,7.50
2023-03-25T19:06:54.777Z,7.40
2023-03-25T19:09:23.721Z,8.40
2023-03-25T19:11:51.163Z,8.32
2023-03-25T19:14:18.520Z,8.00
2023-03-25T19:16:57.140Z,7.93
2023-03-25T19:19:30.935Z,8.52
2023-03-25T19:21:58.313Z,9.70
2023-03-25T19:24:25.773Z,10.10
2023-03-25T19:26:53.085Z,10.23
2023-03-25T19:29:20.466Z,11.48
2023-03-25T19:31:48.921Z,10.70
2023-03-25T19:34:16.698Z,12.63
2023-03-25T19:36:46.700Z,12.50
2023-03-25T19:39:13.971Z,11.82
2023-03-25T19:41:42.871Z,12.55
2023-03-25T19:44:10.353Z,11.85
2023-03-25T19:46:37.791Z,11.38
2023-03-25T19:49:05.364Z,11.77
2023-03-25T19:51:32.609Z,11.90
2023-03-25T19:53:59.902Z,10.70
2023-03-25T19:56:27.235Z,11.50
2023-03-25T19:58:54.574Z,11.55
2023-03-25T20:01:22.833Z,11.60
2023-03-25T20:03:51.167Z,12.00
2023-03-25T20:06:18.542Z,10.95
2023-03-25T20:08:45.897Z,11.80
2023-03-25T20:11:13.211Z,11.73
2023-03-25T20:13:40.632Z,11.82
2023-03-25T20:16:08.508Z,12.18
2023-03-25T20:18:35.950Z,11.77
2023-03-25T20:21:06.531Z,10.07
2023-03-25T20:23:33.923Z,10.77
2023-03-25T20:26:01.318Z,11.10
2023-03-25T20:28:31.398Z,10.40
2023-03-25T20:30:59.073Z,10.45
2023-03-25T20:33:27.917Z,10.25
2023-03-25T20:35:55.808Z,9.93
2023-03-25T20:38:23.322Z,10.93
2023-03-25T20:40:54.513Z,10.52
2023-03-25T20:43:21.962Z,9.23
2023-03-25T20:45:53.867Z,9.80
2023-03-25T20:48:22.044Z,9.80
2023-03-25T20:50:49.551Z,9.77
2023-03-25T20:53:16.890Z,9.43
2023-03-25T20:55:45.188Z,8.80
2023-03-25T20:58:12.784Z,8.57
2023-03-25T21:00:40.150Z,8.57
2023-03-25T21:03:07.541Z,8.73
2023-03-25T21:05:34.858Z,9.02
2023-03-25T21:08:02.155Z,8.35
2023-03-25T21:10:29.512Z,8.43
2023-03-25T21:12:56.812Z,8.75
2023-03-25T21:15:24.214Z,8.40
2023-03-25T21:17:51.493Z,8.52
2023-03-25T21:20:21.952Z,8.52
2023-03-25T21:22:50.964Z,7.72
2023-03-25T21:25:18.439Z,8.40
2023-03-25T21:27:46.677Z,8.15
2023-03-25T21:30:17.151Z,7.65
2023-03-25T21:32:44.589Z,7.80
2023-03-25T21:35:12.002Z,6.13
2023-03-25T21:37:40.124Z,7.60
2023-03-25T21:40:13.145Z,7.18
2023-03-25T21:42:42.047Z,7.10
2023-03-25T21:45:11.518Z,6.55
2023-03-25T21:47:39.157Z,6.75
2023-03-25T21:50:09.903Z,6.32
2023-03-25T21:52:38.426Z,6.38
2023-03-25T21:55:06.337Z,6.47
2023-03-25T21:57:38.006Z,6.45
2023-03-25T22:00:10.230Z,6.60
2023-03-25T22:02:37.525Z,6.15
2023-03-25T22:05:05.170Z,6.07
2023-03-25T22:07:32.509Z,5.43
2023-03-25T22:09:59.897Z,5.50
2023-03-25T22:12:27.279Z,5.70
2023-03-25T22:14:54.565Z,6.00
2023-03-25T22:17:21.908Z,6.00
2023-03-25T22:19:50.582Z,5.30
2023-03-25T22:22:20.662Z,6.05
2023-03-25T22:24:49.368Z,6.03
2023-03-25T22:27:16.739Z,5.38
2023-03-25T22:29:44.542Z,5.30
2023-03-25T22:32:12.277Z,5.28
2023-03-25T22:34:39.605Z,5.32
2023-03-25T22:37:06.935Z,5.38
2023-03-25T22:39:34.626Z,5.00
2023-03-25T22:42:01.955Z,4.80
2023-03-25T22:44:29.407Z,4.43
2023-03-25T22:46:57.093Z,4.85
2023-03-25T22:49:24.356Z,4.72
2023-03-25T22:51:52.023Z,4.80
2023-03-25T22:54:19.538Z,4.65
2023-03-25T22:56:46.895Z,4.88
2023-03-25T22:59:15.277Z,4.55
2023-03-25T23:01:43.288Z,4.45
2023-03-25T23:04:10.890Z,4.50
2023-03-25T23:06:38.648Z,4.35
2023-03-25T23:09:08.749Z,4.10
2023-03-25T23:11:37.195Z,4.65
2023-03-25T23:14:09.576Z,4.38
2023-03-25T23:16:37.014Z,4.55
2023-03-25T23:19:06.678Z,4.55
2023-03-25T23:21:34.430Z,4.30
2023-03-25T23:24:03.835Z,4.85
2023-03-25T23:26:38.929Z,4.10
2023-03-25T23:29:09.537Z,4.60
2023-03-25T23:31:41.203Z,4.43
2023-03-25T23:34:12.393Z,4.43
2023-03-25T23:36:39.977Z,4.30
2023-03-25T23:39:10.271Z,4.32
2023-03-25T23:41:38.620Z,4.70
2023-03-25T23:44:06.769Z,4.70
2023-03-25T23:46:34.486Z,4.65
2023-03-25T23:49:02.460Z,4.40
2023-03-25T23:51:36.841Z,4.65
2023-03-25T23:54:06.426Z,4.97
2023-03-25T23:56:34.520Z,4.03
2023-03-25T23:59:02.364Z,5.03
